Time;durP1;ratioP1;P1;durP2;ratioP2;P2;SDS_P1;SDS_P2;PMS_P1;PMS_P2;Temp;Humidity;BMP_temperature;BMP_pressure;BME280_temperature;BME280_humidity;BME280_pressure;Samples;Min_cycle;Max_cycle;Signal;HPM_P1;HPM_P2
2022/03/14 00:00:07;;;;;;;24.60;20.63;;;15.40;39.10;;;-142.21;41.30;112049.66;6041899;23;20891;-82
2022/03/14 00:02:36;;;;;;;22.40;19.70;;;15.40;39.30;;;-142.21;41.28;112049.66;6042434;23;20410;-83
2022/03/14 00:05:05;;;;;;;23.37;19.97;;;15.30;39.00;;;-142.21;41.10;112049.66;6041073;23;20493;-83
2022/03/14 00:07:35;;;;;;;21.33;19.10;;;15.30;39.00;;;-142.21;40.83;112049.66;6041653;23;20421;-81
2022/03/14 00:10:03;;;;;;;23.93;20.23;;;15.30;39.00;;;-142.21;40.87;112049.66;6041877;23;20450;-82
2022/03/14 00:12:33;;;;;;;21.73;19.43;;;15.20;38.90;;;-142.21;40.53;112049.66;6041738;23;20418;-82
2022/03/14 00:15:07;;;;;;;21.83;19.43;;;15.30;38.80;;;-142.21;40.60;112049.66;6041536;23;20429;-84
2022/03/14 00:17:34;;;;;;;23.17;18.83;;;15.30;38.80;;;-142.21;39.82;112049.66;6040813;23;20418;-82
2022/03/14 00:20:07;;;;;;;21.57;19.17;;;15.30;38.20;;;-142.21;39.17;112049.66;6040803;23;20418;-83
2022/03/14 00:22:37;;;;;;;21.17;18.93;;;15.20;38.00;;;-142.21;39.60;112049.66;6041975;23;20387;-82
2022/03/14 00:25:10;;;;;;;22.50;18.70;;;15.20;38.20;;;-142.21;39.08;112049.66;6041900;23;20909;-83
2022/03/14 00:27:39;;;;;;;20.87;18.63;;;15.20;38.10;;;-142.21;40.04;112049.66;6042092;23;20447;-83
2022/03/14 00:30:11;;;;;;;23.03;18.87;;;15.10;38.10;;;-142.21;40.26;112049.66;6042235;23;20453;-82
2022/03/14 00:32:39;;;;;;;20.30;18.13;;;15.10;38.80;;;-142.21;41.11;112049.66;6042337;23;20883;-81
2022/03/14 00:35:11;;;;;;;20.17;18.00;;;15.10;39.20;;;-142.21;40.99;112049.66;6041675;23;20445;-81
2022/03/14 00:37:39;;;;;;;20.03;17.93;;;15.10;39.40;;;-142.21;41.68;112049.66;6041434;23;20418;-81
2022/03/14 00:40:10;;;;;;;20.77;17.83;;;15.10;39.50;;;-142.21;41.72;112049.66;6041997;23;20426;-81
2022/03/14 00:42:40;;;;;;;19.60;17.53;;;15.10;39.80;;;-142.21;42.19;112049.66;6041745;23;20422;-83
2022/03/14 00:45:09;;;;;;;20.47;16.30;;;15.20;40.30;;;-142.21;43.02;112049.66;6041097;23;20446;-81
2022/03/14 00:47:38;;;;;;;20.70;16.13;;;15.20;40.50;;;-142.21;43.64;112049.66;6041786;23;20482;-82
2022/03/14 00:50:07;;;;;;;18.33;15.30;;;15.20;40.60;;;-142.21;46.29;112049.66;6041430;23;20446;-81
2022/03/14 00:52:35;;;;;;;17.40;14.83;;;15.20;41.80;;;-142.21;46.85;112049.66;6041701;23;20426;-82
2022/03/14 00:55:06;;;;;;;19.73;13.77;;;15.20;42.10;;;-142.21;55.62;112049.66;6041340;23;20414;-82
2022/03/14 00:57:48;;;;;;;14.17;12.67;;;15.00;44.40;;;-142.21;65.78;112049.66;6042253;23;20402;-80
2022/03/14 01:00:16;;;;;;;12.37;11.03;;;15.20;46.00;;;-142.21;72.43;112049.66;6041531;23;20959;-81
2022/03/14 01:02:48;;;;;;;9.10;8.20;;;15.10;47.00;;;-142.21;78.79;112049.66;6041374;23;20447;-81
2022/03/14 01:05:15;;;;;;;8.43;7.20;;;15.10;48.60;;;-142.21;80.02;112049.66;6041675;23;20940;-82
2022/03/14 01:07:45;;;;;;;6.30;5.70;;;15.10;49.30;;;-142.21;82.09;112049.66;6041126;23;20418;-83
2022/03/14 01:10:13;;;;;;;4.93;4.50;;;15.10;49.60;;;-142.21;83.75;112049.66;6040884;23;20731;-82
2022/03/14 01:12:44;;;;;;;4.50;4.10;;;15.10;50.60;;;-142.21;85.83;112049.66;6041387;23;20894;-80
2022/03/14 01:15:19;;;;;;;5.27;4.10;;;15.00;51.40;;;-142.21;88.23;112049.66;6041754;23;20419;-82
2022/03/14 01:17:46;;;;;;;4.60;3.30;;;14.90;51.80;;;-142.21;90.82;112049.66;6041187;23;20505;-84
2022/03/14 01:20:14;;;;;;;3.10;2.80;;;14.90;52.30;;;-142.21;93.33;112049.66;6041813;23;20927;-82
2022/03/14 01:25:23;;;;;;;2.70;2.50;;;14.80;53.70;;;-142.21;99.39;112049.66;6037708;23;20442;-80
2022/03/14 01:27:53;;;;;;;2.57;2.37;;;14.70;54.80;;;-142.21;100.00;112049.66;6041273;23;20426;-81
2022/03/14 01:30:22;;;;;;;2.70;2.10;;;14.60;55.20;;;-142.21;100.00;112049.66;6040151;23;20498;-80
2022/03/14 01:32:54;;;;;;;3.43;2.13;;;14.40;55.90;;;-142.21;100.00;112049.66;6041301;23;20414;-81
2022/03/14 01:35:27;;;;;;;2.00;1.70;;;14.30;56.80;;;-142.21;100.00;112049.66;6041118;23;20418;-80
2022/03/14 01:37:56;;;;;;;2.67;2.00;;;14.10;57.60;;;-142.21;100.00;112049.66;6041415;23;20444;-83
2022/03/14 01:40:24;;;;;;;1.90;1.70;;;14.10;58.00;;;-142.21;100.00;112049.66;6041522;23;20426;-80
2022/03/14 01:42:55;;;;;;;1.80;1.70;;;14.00;58.40;;;-142.21;100.00;112049.66;6040723;23;20447;-80
2022/03/14 01:45:24;;;;;;;1.63;1.53;;;13.90;59.40;;;-142.21;100.00;112049.66;6040613;23;20437;-83
2022/03/14 01:47:54;;;;;;;1.80;1.70;;;13.80;59.70;;;-142.21;100.00;112049.66;6041214;23;20512;-82
2022/03/14 01:50:23;;;;;;;2.00;1.77;;;13.80;60.30;;;-142.21;100.00;112049.66;6041270;23;20446;-84
2022/03/14 01:52:54;;;;;;;1.70;1.60;;;13.70;60.10;;;-142.21;100.00;112049.66;6040872;23;20418;-84
2022/03/14 01:55:22;;;;;;;1.80;1.70;;;13.70;60.90;;;-142.21;100.00;112049.66;6040782;23;20510;-82
2022/03/14 01:57:50;;;;;;;1.40;1.30;;;13.60;62.00;;;-142.21;100.00;112049.66;6040875;23;20446;-82
2022/03/14 02:00:19;;;;;;;1.87;1.67;;;13.60;61.70;;;-142.21;100.00;112049.66;6040877;23;20418;-83
2022/03/14 02:02:50;;;;;;;2.53;1.30;;;13.60;62.70;;;-142.21;100.00;112049.66;6041089;23;20937;-82
2022/03/14 02:05:21;;;;;;;2.93;1.40;;;13.60;62.10;;;-142.21;100.00;112049.66;6041371;23;20458;-84
2022/03/14 02:07:48;;;;;;;1.73;1.23;;;13.60;62.20;;;-142.21;100.00;112049.66;6038344;23;20422;-82
2022/03/14 02:10:16;;;;;;;1.30;1.20;;;13.60;62.90;;;-142.21;100.00;112049.66;6041051;23;20432;-83
2022/03/14 02:12:44;;;;;;;1.40;1.30;;;13.40;62.90;;;-142.21;100.00;112049.66;6041851;23;20422;-83
2022/03/14 02:15:12;;;;;;;2.10;1.30;;;13.40;63.20;;;-142.21;100.00;112049.66;6041735;23;20981;-81
2022/03/14 02:17:52;;;;;;;1.43;1.20;;;13.50;63.30;;;-142.21;100.00;112049.66;6040606;23;20442;-82
2022/03/14 02:20:36;;;;;;;1.60;1.50;;;13.50;63.80;;;-142.21;100.00;112049.66;6041233;23;20422;-84
2022/03/14 02:23:07;;;;;;;1.87;1.30;;;13.40;64.60;;;-142.21;100.00;112049.66;6041575;23;20406;-84
2022/03/14 02:25:37;;;;;;;1.60;1.50;;;13.40;63.50;;;-142.21;100.00;112049.66;6041419;23;20383;-82
2022/03/14 02:28:07;;;;;;;1.40;1.30;;;13.30;63.80;;;-142.21;100.00;112049.66;6041962;23;20422;-83
2022/03/14 02:30:40;;;;;;;1.20;1.10;;;13.30;63.50;;;-142.21;100.00;112049.66;6062816;23;20418;-83
2022/03/14 02:33:07;;;;;;;2.13;1.30;;;13.30;64.10;;;-142.21;100.00;112049.66;6065355;23;20386;-83
2022/03/14 02:35:39;;;;;;;1.33;1.23;;;13.30;63.50;;;-142.21;100.00;112049.66;6062344;23;20411;-83
2022/03/14 02:38:11;;;;;;;1.20;1.10;;;13.20;63.80;;;-142.21;100.00;112049.66;6065428;23;20409;-84
2022/03/14 02:40:46;;;;;;;0.97;0.97;;;13.20;64.00;;;-142.21;100.00;112049.66;6066325;23;20406;-83
2022/03/14 02:43:15;;;;;;;1.10;1.00;;;13.20;64.00;;;-142.21;100.00;112049.66;6060905;23;20485;-82
2022/03/14 02:45:45;;;;;;;1.73;1.20;;;13.20;63.60;;;-142.21;100.00;112049.66;6051591;23;20424;-82
2022/03/14 02:48:13;;;;;;;1.30;1.20;;;13.20;63.90;;;-142.21;100.00;112049.66;6040715;23;20423;-83
2022/03/14 02:50:48;;;;;;;1.23;1.00;;;13.20;63.80;;;-142.21;100.00;112049.66;6040295;23;20955;-82
2022/03/14 02:53:18;;;;;;;1.10;1.10;;;13.10;64.20;;;-142.21;100.00;112049.66;6040596;23;20422;-83
2022/03/14 02:55:53;;;;;;;1.10;1.00;;;13.20;63.80;;;-142.21;100.00;112049.66;6041595;23;20449;-84
2022/03/14 02:58:28;;;;;;;0.97;0.87;;;13.20;63.40;;;-142.21;100.00;112049.66;6040990;23;20492;-83
2022/03/14 03:01:04;;;;;;;0.93;0.93;;;13.10;64.50;;;-142.21;100.00;112049.66;6042736;23;20413;-84
2022/03/14 03:03:32;;;;;;;1.20;1.10;;;13.10;63.90;;;-142.21;100.00;112049.66;6042105;23;20418;-83
2022/03/14 03:06:03;;;;;;;1.13;1.00;;;13.10;64.00;;;-142.21;100.00;112049.66;6040611;23;20442;-84
2022/03/14 03:08:35;;;;;;;1.30;1.20;;;13.10;64.20;;;-142.21;100.00;112049.66;6040860;23;20497;-82
2022/03/14 03:11:08;;;;;;;0.90;0.90;;;13.00;63.80;;;-142.21;100.00;112049.66;6041144;23;20454;-82
2022/03/14 03:13:42;;;;;;;1.17;1.00;;;13.00;64.20;;;-142.21;100.00;112049.66;6041117;23;20527;-81
2022/03/14 03:16:13;;;;;;;1.20;1.10;;;12.90;65.00;;;-142.21;100.00;112049.66;6016650;23;20410;-84
2022/03/14 03:18:47;;;;;;;1.20;0.70;;;12.80;65.10;;;-142.21;100.00;112049.66;6041580;23;20414;-83
2022/03/14 03:21:22;;;;;;;0.90;0.90;;;12.80;64.90;;;-142.21;100.00;112049.66;6041624;23;20433;-83
2022/03/14 03:23:52;;;;;;;0.80;0.80;;;12.80;65.70;;;-142.21;100.00;112049.66;6042867;23;20421;-83
2022/03/14 03:26:23;;;;;;;0.90;0.90;;;12.80;65.00;;;-142.21;100.00;112049.66;6042995;23;20446;-82
2022/03/14 03:28:53;;;;;;;1.00;1.00;;;12.80;65.30;;;-142.21;100.00;112049.66;6043037;23;20413;-83
2022/03/14 03:31:30;;;;;;;1.40;1.00;;;12.80;65.10;;;-142.21;100.00;112049.66;6043060;23;20453;-82
2022/03/14 03:33:58;;;;;;;1.17;1.03;;;12.80;66.10;;;-142.21;100.00;112049.66;6043191;23;20410;-82
2022/03/14 03:36:30;;;;;;;1.30;1.20;;;12.90;66.10;;;-142.21;100.00;112049.66;6042637;23;20423;-83
2022/03/14 03:39:00;;;;;;;1.63;1.53;;;13.00;66.20;;;-142.21;100.00;112049.66;6037939;23;20422;-82
2022/03/14 03:41:27;;;;;;;1.70;1.60;;;12.90;66.10;;;-142.21;100.00;112049.66;6042319;23;20433;-83
2022/03/14 03:43:55;;;;;;;1.87;1.70;;;12.90;66.80;;;-142.21;100.00;112049.66;6041806;23;20418;-82
2022/03/14 03:46:22;;;;;;;2.93;1.80;;;12.90;67.50;;;-142.21;100.00;112049.66;6042356;23;20418;-77
2022/03/14 03:48:50;;;;;;;2.00;1.80;;;12.90;67.60;;;-142.21;100.00;112049.66;6042799;23;20402;-82
2022/03/14 03:51:19;;;;;;;3.30;2.17;;;12.90;67.30;;;-142.21;100.00;112049.66;6042121;23;20457;-82
2022/03/14 03:53:48;;;;;;;2.50;1.93;;;12.90;68.00;;;-142.21;100.00;112049.66;6042873;23;20813;-81
2022/03/14 03:56:15;;;;;;;2.33;2.13;;;12.90;68.40;;;-142.21;100.00;112049.66;6042594;23;20422;-81
2022/03/14 03:58:46;;;;;;;1.97;1.87;;;12.90;67.80;;;-142.21;100.00;112049.66;6042081;23;20422;-81
2022/03/14 04:01:19;;;;;;;2.10;1.97;;;12.90;68.00;;;-142.21;100.00;112049.66;6042028;23;20405;-82
2022/03/14 04:03:54;;;;;;;3.20;2.37;;;12.80;68.00;;;-142.21;100.00;112049.66;6042261;23;20422;-80
2022/03/14 04:06:26;;;;;;;2.30;1.97;;;12.70;68.50;;;-142.21;100.00;112049.66;6043099;23;20442;-82
2022/03/14 04:08:55;;;;;;;2.00;1.80;;;12.60;69.00;;;-142.21;100.00;112049.66;6042370;23;20442;-83
2022/03/14 04:11:24;;;;;;;2.03;1.87;;;12.70;68.80;;;-142.21;100.00;112049.66;6041491;23;20457;-82
2022/03/14 04:13:53;;;;;;;2.37;2.17;;;12.70;68.20;;;-142.21;100.00;112049.66;6042043;23;20798;-82
2022/03/14 04:16:23;;;;;;;2.20;2.00;;;12.70;67.90;;;-142.21;100.00;112049.66;6041759;23;20422;-82
2022/03/14 04:18:53;;;;;;;2.00;1.90;;;12.70;68.10;;;-142.21;100.00;112049.66;6042922;23;20468;-83
2022/03/14 04:21:23;;;;;;;2.47;1.90;;;12.80;68.10;;;-142.21;100.00;112049.66;6041949;23;20425;-82
2022/03/14 04:23:51;;;;;;;2.20;2.00;;;12.80;68.30;;;-142.21;100.00;112049.66;6042487;23;20418;-82
2022/03/14 04:26:20;;;;;;;2.10;1.90;;;12.90;67.70;;;-142.21;100.00;112049.66;6042409;23;20907;-83
2022/03/14 04:28:48;;;;;;;2.10;1.90;;;12.90;67.90;;;-142.21;100.00;112049.66;6043375;23;20448;-84
2022/03/14 04:31:16;;;;;;;2.70;1.87;;;12.90;67.00;;;-142.21;100.00;112049.66;6042118;23;20888;-83
2022/03/14 04:33:44;;;;;;;2.03;1.90;;;13.00;67.00;;;-142.21;100.00;112049.66;6041477;23;20802;-82
2022/03/14 04:36:11;;;;;;;1.90;1.70;;;12.90;67.10;;;-142.21;100.00;112049.66;6042559;23;20444;-83
2022/03/14 04:38:39;;;;;;;1.77;1.67;;;12.90;67.20;;;-142.21;100.00;112049.66;6042111;23;20500;-83
2022/03/14 04:41:13;;;;;;;2.10;1.53;;;12.90;67.00;;;-142.21;100.00;112049.66;6041661;23;20433;-82
2022/03/14 04:43:48;;;;;;;1.83;1.73;;;12.90;67.30;;;-142.21;100.00;112049.66;6042110;23;20424;-78
2022/03/14 04:46:19;;;;;;;1.63;1.53;;;12.90;68.20;;;-142.21;100.00;112049.66;6043927;23;20414;-82
2022/03/14 04:48:46;;;;;;;1.50;1.40;;;12.80;67.20;;;-142.21;100.00;112049.66;6044572;23;20864;-83
2022/03/14 04:51:14;;;;;;;1.70;1.60;;;12.70;67.50;;;-142.21;100.00;112049.66;6042535;23;20442;-82
2022/03/14 04:53:42;;;;;;;1.30;1.20;;;12.70;68.20;;;-142.21;100.00;112049.66;6042070;23;20422;-83
2022/03/14 04:56:09;;;;;;;1.70;1.60;;;12.60;67.70;;;-142.21;100.00;112049.66;6042175;23;20434;-83
2022/03/14 04:58:37;;;;;;;1.80;1.33;;;12.70;67.70;;;-142.21;100.00;112049.66;6041776;23;20418;-82
2022/03/14 05:01:26;;;;;;;1.70;1.60;;;12.70;67.30;;;-142.21;100.00;112049.66;6042498;23;20414;-82
2022/03/14 05:03:57;;;;;;;2.00;1.60;;;12.70;68.10;;;-142.21;100.00;112049.66;6040402;23;20921;-79
2022/03/14 05:06:27;;;;;;;2.30;1.93;;;12.70;67.60;;;-142.21;100.00;112049.66;6043882;23;20510;-83
2022/03/14 05:08:58;;;;;;;2.63;1.60;;;12.70;66.90;;;-142.21;100.00;112049.66;6018286;23;20438;-82
2022/03/14 05:11:25;;;;;;;2.40;1.60;;;12.70;67.50;;;-142.21;100.00;112049.66;6043794;23;20423;-83
2022/03/14 05:13:53;;;;;;;1.67;1.53;;;12.70;67.10;;;-142.21;100.00;112049.66;6043133;23;20422;-82
2022/03/14 05:16:23;;;;;;;1.50;1.40;;;12.70;68.00;;;-142.21;100.00;112049.66;6042701;23;20501;-82
2022/03/14 05:18:51;;;;;;;1.40;1.30;;;12.80;67.10;;;-142.21;100.00;112049.66;6041567;23;20426;-82
2022/03/14 05:21:21;;;;;;;4.43;1.73;;;12.80;66.90;;;-142.21;100.00;112049.66;6041999;23;20482;-83
2022/03/14 05:23:48;;;;;;;2.00;1.50;;;12.80;66.70;;;-142.21;100.00;112049.66;6042001;23;20419;-82
2022/03/14 05:26:20;;;;;;;1.90;1.50;;;12.80;67.00;;;-142.21;100.00;112049.66;6042514;23;20979;-82
2022/03/14 05:28:47;;;;;;;1.83;1.53;;;12.70;67.50;;;-142.21;100.00;112049.66;6041923;23;20426;-82
2022/03/14 05:31:15;;;;;;;2.77;1.63;;;12.70;67.10;;;-142.21;100.00;112049.66;6042401;23;20422;-82
2022/03/14 05:33:44;;;;;;;4.20;1.87;;;12.70;67.30;;;-142.21;100.00;112049.66;6043191;23;20477;-82
2022/03/14 05:36:12;;;;;;;3.83;2.17;;;12.80;67.40;;;-142.21;100.00;112049.66;6042941;23;20495;-83
2022/03/14 05:38:40;;;;;;;1.97;1.60;;;12.80;66.60;;;-142.21;100.00;112049.66;6042290;23;20418;-82
2022/03/14 05:41:09;;;;;;;1.73;1.63;;;12.80;67.00;;;-142.21;100.00;112049.66;6042226;23;20491;-82
2022/03/14 05:43:37;;;;;;;2.07;1.80;;;12.80;67.10;;;-142.21;100.00;112049.66;6042202;23;20737;-83
2022/03/14 05:46:08;;;;;;;2.00;1.60;;;12.80;67.00;;;-142.21;100.00;112049.66;6041647;23;20419;-82
2022/03/14 05:48:36;;;;;;;2.07;1.60;;;12.80;67.10;;;-142.21;100.00;112049.66;6041617;23;20469;-81
2022/03/14 05:51:07;;;;;;;2.27;1.60;;;12.80;66.60;;;-142.21;100.00;112049.66;6043085;23;20454;-78
2022/03/14 05:53:36;;;;;;;2.20;1.57;;;12.70;66.60;;;-142.21;100.00;112049.66;6042600;23;20480;-82
2022/03/14 05:56:04;;;;;;;2.00;1.60;;;12.70;66.60;;;-142.21;100.00;112049.66;6043415;23;20883;-81
2022/03/14 05:58:35;;;;;;;2.73;1.67;;;12.70;66.90;;;-142.21;100.00;112049.66;6041180;23;20418;-83
2022/03/14 06:01:03;;;;;;;2.33;1.60;;;12.70;66.90;;;-142.21;100.00;112049.66;6042067;23;20990;-81
2022/03/14 06:03:30;;;;;;;1.63;1.50;;;12.70;66.60;;;-142.21;100.00;112049.66;6041588;23;20476;-83
2022/03/14 06:05:57;;;;;;;2.57;1.77;;;12.70;66.30;;;-142.21;100.00;112049.66;6041016;23;20438;-83
2022/03/14 06:08:27;;;;;;;2.60;1.77;;;12.70;66.50;;;-142.21;100.00;112049.66;6041819;23;20429;-82
2022/03/14 06:11:08;;;;;;;3.23;1.83;;;12.70;66.20;;;-142.21;100.00;112049.66;6041540;23;20513;-82
2022/03/14 06:13:36;;;;;;;2.17;1.70;;;12.70;66.10;;;-142.21;100.00;112049.66;6036437;23;20454;-82
2022/03/14 06:16:05;;;;;;;1.60;1.50;;;12.70;66.10;;;-142.21;100.00;112049.66;6041716;23;20509;-82
2022/03/14 06:18:37;;;;;;;2.43;1.70;;;12.80;66.10;;;-142.21;100.00;112049.66;6040498;23;20429;-83
2022/03/14 06:21:04;;;;;;;4.00;2.00;;;12.80;65.90;;;-142.21;100.00;112049.66;6041457;23;20452;-82
2022/03/14 06:23:39;;;;;;;2.63;1.60;;;12.80;65.60;;;-142.21;100.00;112049.66;6040603;23;20415;-79
2022/03/14 06:26:07;;;;;;;1.70;1.43;;;12.70;66.50;;;-142.21;100.00;112049.66;6042428;23;20417;-82
2022/03/14 06:28:34;;;;;;;2.10;1.37;;;12.60;65.90;;;-142.21;100.00;112049.66;6041079;23;20427;-83
2022/03/14 06:31:02;;;;;;;3.40;1.63;;;12.60;66.30;;;-142.21;100.00;112049.66;6042209;23;20501;-83
2022/03/14 06:33:30;;;;;;;1.50;1.40;;;12.60;66.40;;;-142.21;100.00;112049.66;6041341;23;20483;-82
2022/03/14 06:35:58;;;;;;;2.53;1.70;;;12.70;66.10;;;-142.21;100.00;112049.66;6040592;23;20962;-82
2022/03/14 06:38:27;;;;;;;2.30;1.40;;;12.70;65.60;;;-142.21;100.00;112049.66;6041168;23;20422;-83
2022/03/14 06:40:56;;;;;;;2.90;1.60;;;12.80;65.20;;;-142.21;100.00;112049.66;6040144;23;20433;-82
2022/03/14 06:43:25;;;;;;;2.13;1.60;;;12.80;65.80;;;-142.21;100.00;112049.66;6041103;23;20467;-82
2022/03/14 06:45:55;;;;;;;1.93;1.43;;;12.80;65.30;;;-142.21;100.00;112049.66;6040210;23;20418;-82
2022/03/14 06:48:22;;;;;;;1.67;1.40;;;12.80;65.10;;;-142.21;100.00;112049.66;6040894;23;20986;-80
2022/03/14 06:50:49;;;;;;;4.27;1.80;;;12.90;64.50;;;-142.21;100.00;112049.66;6039850;23;20529;-76
2022/03/14 06:53:17;;;;;;;3.43;2.10;;;12.90;64.50;;;-142.21;100.00;112049.66;6039662;23;20450;-80
2022/03/14 06:55:44;;;;;;;3.47;2.00;;;12.90;64.60;;;-142.21;100.00;112049.66;6038934;23;20421;-79
2022/03/14 06:58:13;;;;;;;3.33;1.60;;;13.00;64.50;;;-142.21;100.00;112049.66;6040021;23;20449;-78
2022/03/14 07:00:41;;;;;;;3.97;2.20;;;12.90;64.40;;;-142.21;100.00;112049.66;6039904;23;20418;-77
2022/03/14 07:03:08;;;;;;;4.77;1.90;;;12.90;64.30;;;-142.21;100.00;112049.66;6038739;23;20423;-82
2022/03/14 07:05:35;;;;;;;3.47;1.70;;;12.90;64.40;;;-142.21;100.00;112049.66;6040539;23;20450;-80
2022/03/14 07:08:02;;;;;;;3.03;1.60;;;12.90;64.30;;;-142.21;100.00;112049.66;6040657;23;20418;-81
2022/03/14 07:10:30;;;;;;;4.70;2.00;;;12.90;64.60;;;-142.21;100.00;112049.66;6041914;23;20433;-78
2022/03/14 07:12:58;;;;;;;3.07;1.70;;;12.90;64.40;;;-142.21;100.00;112049.66;6038466;23;20778;-79
2022/03/14 07:15:26;;;;;;;2.63;1.70;;;12.90;64.40;;;-142.21;100.00;112049.66;6039974;23;20892;-79
2022/03/14 07:17:55;;;;;;;3.50;1.53;;;13.00;64.30;;;-142.21;100.00;112049.66;6039427;23;20423;-79
2022/03/14 07:20:24;;;;;;;2.83;1.80;;;13.20;64.40;;;-142.21;100.00;112049.66;6038992;23;20422;-77
2022/03/14 07:22:55;;;;;;;4.63;2.30;;;13.60;63.60;;;-142.21;100.00;112049.66;6039146;23;20790;-77
2022/03/14 07:25:25;;;;;;;3.57;1.77;;;13.70;62.50;;;-142.21;100.00;112049.66;6038084;23;20406;-76
2022/03/14 07:27:54;;;;;;;5.33;1.93;;;13.80;62.50;;;-142.21;100.00;112049.66;6038648;23;20883;-76
2022/03/14 07:30:22;;;;;;;1.83;1.40;;;13.80;62.10;;;-142.21;100.00;112049.66;6037985;23;20441;-77
2022/03/14 07:32:51;;;;;;;4.87;2.07;;;13.80;62.10;;;-142.21;100.00;112049.66;6038030;23;20479;-75
2022/03/14 07:35:19;;;;;;;2.67;1.60;;;13.90;62.20;;;-142.21;100.00;112049.66;6037912;23;20816;-75
2022/03/14 07:37:47;;;;;;;4.60;2.10;;;13.90;61.40;;;-142.21;100.00;112049.66;6040402;23;20411;-80
2022/03/14 07:40:16;;;;;;;3.23;1.67;;;13.90;61.30;;;-142.21;100.00;112049.66;6041034;23;20437;-81
2022/03/14 07:42:46;;;;;;;2.67;1.77;;;13.80;60.50;;;-142.21;100.00;112049.66;6043308;23;20425;-82
2022/03/14 07:45:24;;;;;;;3.50;1.77;;;13.80;60.30;;;-142.21;100.00;112049.66;6047101;23;20406;-80
2022/03/14 07:47:56;;;;;;;3.67;1.77;;;13.90;60.40;;;-142.21;100.00;112049.66;6044477;23;20473;-80
2022/03/14 07:50:26;;;;;;;2.63;1.60;;;14.30;59.40;;;-142.21;100.00;112049.66;6043022;23;20450;-79
2022/03/14 07:52:55;;;;;;;2.77;1.53;;;14.40;59.70;;;-142.21;100.00;112049.66;6043917;23;20477;-80
2022/03/14 07:55:24;;;;;;;2.33;1.50;;;14.40;58.90;;;-142.21;100.00;112049.66;6041582;23;20398;-81
2022/03/14 07:57:52;;;;;;;5.00;1.90;;;14.50;59.20;;;-142.21;100.00;112049.66;6039429;23;20796;-77
2022/03/14 08:00:21;;;;;;;3.17;1.70;;;14.60;58.80;;;-142.21;100.00;112049.66;6040793;23;20502;-80
2022/03/14 08:02:50;;;;;;;2.50;1.60;;;14.80;58.50;;;-142.21;100.00;112049.66;6039582;23;20409;-78
2022/03/14 08:05:24;;;;;;;4.73;1.87;;;14.90;58.30;;;-142.21;100.00;112049.66;6038678;23;20434;-80
2022/03/14 08:07:52;;;;;;;3.33;1.70;;;14.80;57.50;;;-142.21;99.00;112049.66;6039863;23;20398;-75
2022/03/14 08:10:22;;;;;;;2.80;1.30;;;14.60;57.20;;;-142.21;100.00;112049.66;6040239;23;20422;-80
2022/03/14 08:12:52;;;;;;;3.57;1.50;;;14.70;57.70;;;-142.21;100.00;112049.66;6040335;23;20450;-78
2022/03/14 08:15:22;;;;;;;3.63;1.63;;;15.00;57.50;;;-142.21;97.28;112049.66;6040127;23;20438;-77
2022/03/14 08:17:51;;;;;;;2.50;2.13;;;15.10;56.50;;;-142.21;99.15;112049.66;6039500;23;20398;-74
2022/03/14 08:20:21;;;;;;;1.73;1.50;;;15.20;56.20;;;-142.21;98.50;112049.66;6040126;23;20773;-80
2022/03/14 08:22:49;;;;;;;2.70;2.43;;;15.30;56.40;;;-142.21;98.94;112049.66;6040553;23;20479;-75
2022/03/14 08:25:17;;;;;;;3.37;1.70;;;15.50;56.00;;;-142.21;96.83;112049.66;6041155;23;20415;-77
2022/03/14 08:27:44;;;;;;;1.33;1.23;;;15.50;55.00;;;-142.21;98.08;112049.66;6041286;23;20499;-76
2022/03/14 08:30:12;;;;;;;3.77;2.53;;;15.30;55.30;;;-142.21;97.70;112049.66;6039574;23;20425;-76
2022/03/14 08:32:40;;;;;;;1.83;1.63;;;15.40;55.50;;;-142.21;96.26;112049.66;6039043;23;20482;-75
2022/03/14 08:35:11;;;;;;;2.40;1.83;;;15.50;54.60;;;-142.21;96.68;112049.66;6040446;23;20887;-75
2022/03/14 08:37:42;;;;;;;3.73;1.30;;;15.60;54.80;;;-142.21;94.71;112049.66;6040346;23;20432;-76
2022/03/14 08:40:13;;;;;;;3.57;1.60;;;15.70;54.40;;;-142.21;94.30;112049.66;6040087;23;20422;-77
2022/03/14 08:42:47;;;;;;;3.37;2.37;;;15.70;54.00;;;-142.21;93.07;112049.66;6015308;23;20414;-80
2022/03/14 08:45:15;;;;;;;3.50;1.97;;;15.90;54.00;;;-142.21;92.99;112049.66;6040184;23;20929;-77
2022/03/14 08:47:43;;;;;;;3.40;2.10;;;16.00;53.50;;;-142.21;94.71;112049.66;6040028;23;20418;-77
2022/03/14 08:50:14;;;;;;;2.37;1.67;;;16.10;53.60;;;-142.21;94.23;112049.66;6039978;23;20430;-76
2022/03/14 08:52:45;;;;;;;3.07;1.70;;;16.00;53.40;;;-142.21;94.56;112049.66;6039598;23;20407;-76
2022/03/14 08:55:13;;;;;;;2.87;1.67;;;15.90;53.40;;;-142.21;93.60;112049.66;6039403;23;20447;-76
2022/03/14 08:57:41;;;;;;;2.53;1.60;;;15.90;53.10;;;-142.21;90.41;112049.66;6039775;23;20422;-76
2022/03/14 09:00:11;;;;;;;3.13;2.33;;;16.00;53.70;;;-142.21;90.26;112049.66;6038961;23;20446;-77
2022/03/14 09:02:38;;;;;;;2.57;1.90;;;16.20;53.00;;;-142.21;89.06;112049.66;6039711;23;20426;-77
2022/03/14 09:05:07;;;;;;;5.13;2.00;;;16.60;52.00;;;-142.21;89.00;112049.66;6039177;23;20410;-76
2022/03/14 09:07:35;;;;;;;3.33;1.90;;;17.40;52.40;;;-142.21;88.75;112049.66;6040231;23;20403;-76
2022/03/14 09:10:07;;;;;;;3.50;1.80;;;18.20;50.40;;;-142.21;85.37;112049.66;6039062;23;20451;-77
2022/03/14 09:12:34;;;;;;;5.90;3.50;;;19.40;49.10;;;-142.21;82.99;112049.66;6039929;23;20249;-80
2022/03/14 09:15:03;;;;;;;4.43;3.23;;;20.60;47.60;;;-142.21;77.18;112049.66;6039251;23;20664;-81
2022/03/14 09:17:32;;;;;;;3.87;2.10;;;21.40;45.40;;;-142.21;76.78;112049.66;6040321;23;20190;-78
2022/03/14 09:20:01;;;;;;;6.23;2.10;;;21.30;43.00;;;-142.21;79.14;112049.66;6039443;23;20186;-79
2022/03/14 09:22:29;;;;;;;3.13;1.90;;;20.90;43.10;;;-142.21;77.91;112049.66;6039793;23;20494;-79
2022/03/14 09:24:57;;;;;;;3.97;1.70;;;20.70;42.80;;;-142.21;76.68;112049.66;6028917;23;20225;-78
2022/03/14 09:27:26;;;;;;;2.70;2.30;;;20.80;42.80;;;-142.21;75.40;112049.66;6039906;23;20229;-76
2022/03/14 09:29:54;;;;;;;4.10;2.50;;;20.30;41.80;;;-142.21;76.95;112049.66;6039409;23;20181;-80
2022/03/14 09:32:22;;;;;;;4.70;2.30;;;20.30;42.80;;;-142.21;76.65;112049.66;6039766;23;20235;-79
2022/03/14 09:34:49;;;;;;;5.03;1.70;;;20.60;42.80;;;-142.21;74.05;112049.66;6040800;23;20262;-78
2022/03/14 09:37:20;;;;;;;3.60;2.20;;;21.40;42.00;;;-142.21;71.24;112049.66;6039896;23;20178;-78
2022/03/14 09:39:48;;;;;;;2.83;1.60;;;22.00;40.70;;;-142.21;70.70;112049.66;6040020;23;20170;-78
2022/03/14 09:42:17;;;;;;;3.33;1.83;;;22.40;40.50;;;-142.21;70.55;112049.66;6040131;23;20181;-80
2022/03/14 09:44:53;;;;;;;3.10;1.80;;;23.30;39.40;;;-142.21;65.44;112049.66;6038893;23;20230;-79
2022/03/14 09:47:23;;;;;;;6.13;3.80;;;24.40;37.30;;;-142.21;65.36;112049.66;6039980;23;20614;-83
2022/03/14 09:49:54;;;;;;;3.13;2.10;;;25.50;36.70;;;-142.21;62.97;112049.66;6039281;23;20282;-77
2022/03/14 09:52:23;;;;;;;4.07;2.00;;;25.80;35.00;;;-142.21;58.95;112049.66;6039282;23;20385;-77
2022/03/14 09:54:50;;;;;;;4.57;2.00;;;26.40;34.20;;;-142.21;61.06;112049.66;6039493;23;20237;-77
2022/03/14 09:57:19;;;;;;;2.80;1.70;;;27.20;33.60;;;-142.21;57.95;112049.66;6039515;23;20234;-77
2022/03/14 09:59:49;;;;;;;3.93;1.73;;;28.00;32.70;;;-142.21;56.76;112049.66;6038295;23;20185;-77
2022/03/14 10:02:17;;;;;;;2.67;1.90;;;28.50;31.20;;;-142.21;54.60;112049.66;6039897;23;20238;-81
2022/03/14 10:04:45;;;;;;;5.83;2.10;;;28.60;29.80;;;-142.21;54.07;112049.66;6038743;23;20178;-78
2022/03/14 10:07:12;;;;;;;3.70;1.87;;;28.50;30.30;;;-142.21;52.91;112049.66;6039369;23;20234;-78